Plymouth, MA

8:40 AM EST on November 28, 2014 (GMT -0500)
Taunton Municipal | Change Station
CLOSE
Current Station
Airport
Location: Taunton,
Elevation: 43 ft
Nearby Weather Stations
Active Advisory: Winter Weather Advisory Active Notice: Public Information Statement

Elev 43 ft 41.88 °N, 71.02 °W | Updated 29 minutes ago

Snow
Snow
30 °F
Feels Like 22 °F
N
8
Wind Variable Wind from NW

Today
High -- | Low -- °F
--% Chance of Precip.
Yesterday
High -- | Low -- °F
Precip. -- in
6:47 AM 4:13 PM
Waxing Crescent, 40% visible
Pressure 30.03 in
Visibility 7.0 miles
Clouds Mostly Cloudy 1000 ft
Mostly Cloudy 2200 ft
Overcast 3900 ft
Windchill 22 °F
Dew Point 27 °F
Humidity 88%
Rainfall 0.02 in
Snow Depth Not available.
UV 0 out of 12
Pollen .10 out of 12
Air Quality Not available.
Flu Activity Not available.
SPECI KTAN 281311Z AUTO 32007KT 7SM -SN BKN010 BKN022 OVC039 M01/M03 A3003 RMK AO2 P0000 T10111028

More Conditions Fewer Conditions

Pressure 30.03 in
Visibility 7.0 miles
Clouds Mostly Cloudy 1000 ft
Mostly Cloudy 2200 ft
Overcast 3900 ft
Windchill 22 °F
Dew Point 27 °F
Humidity 88%
Rainfall 0.02 in
Snow Depth Not available.
UV 0 out of 12
Pollen .10 out of 12
Air Quality Not available.
Flu Activity Not available.
SPECI KTAN 281311Z AUTO 32007KT 7SM -SN BKN010 BKN022 OVC039 M01/M03 A3003 RMK AO2 P0000 T10111028

More Conditions Fewer Conditions

10-Day Weather Forecast

Almanac

Astronomy

Nov. 28, 2014 Rise Set
Actual Time
Civil Twilight
Nautical Twilight
Astronomical Twilight
Moon
Length of Visible Light
Length of Day
Tomorrow will be .
, % of the Moon is Illuminated

Today's Extremes

State Highs State Lows

Community

WunderPhotos

Upload Photos

1,774,210 photos uploaded!

WunderBlogs® & News

Nearby

Air Quality

  Air Quality AQ Index Pollutant
Not available.

Snow Depth

Station Depth Elevation

Earthquake Activity

City Distance Mag. Time & Date
Minimum magnitude displayed is 2.5.

Coastal Water Temperatures

Place Temperature

Nearby Weather Stations